KMHS

Mount Shasta Airport

Mount Shasta, California, USA
METAR KMHS 221456Z AUTO 00000KT 10SM CLR 17/09 A2994 RMK AO2 SLP128 T01670089 53004
Observed Flight Rules
May-22 @ 14:56 UTC (50 minutes ago) Visual Flight Rules
Visibility Clouds
10 miles
  • Clear skies
Temperatures Readings
Current 17°C / 63°F
Dewpoint 9°C / 48°F
Humidity 59%
Altimeter 29.94" Hg
Pressure 1012.8 hPa
Elevation 1078
METAR KMHS 221456Z AUTO 00000KT 10SM CLR 17/09 A2994 RMK AO2 SLP128 T01670089 53004
Observed Flight Rules
May-22 @ 14:56 UTC
(50 minutes ago)
VFR
Clouds
  • Clear skies
Temperature Dewpoint
17°C / 63°F 9°C / 48°F
Humidity Altimeter Pressure
59% 29.94" Hg 1012.8 hPa